createdAt,value
2023-05-25T00:01:35.123Z,0.73
2023-05-25T00:06:36.828Z,1.10
2023-05-25T00:11:40.130Z,0.55
2023-05-25T00:16:41.825Z,0.70
2023-05-25T00:21:43.508Z,0.60
2023-05-25T00:26:46.500Z,0.80
2023-05-25T00:31:48.231Z,0.63
2023-05-25T00:36:49.969Z,1.67
2023-05-25T00:41:54.805Z,1.02
2023-05-25T00:46:56.554Z,1.17
2023-05-25T00:51:58.417Z,0.88
2023-05-25T00:57:03.220Z,0.52
2023-05-25T01:02:08.263Z,1.30
2023-05-25T01:07:10.863Z,0.57
2023-05-25T01:12:15.665Z,0.50
2023-05-25T01:17:17.985Z,0.60
2023-05-25T01:22:28.601Z,0.40
2023-05-25T01:27:36.030Z,0.88
2023-05-25T01:32:38.431Z,0.45
2023-05-25T01:37:47.146Z,0.80
2023-05-25T01:42:48.848Z,0.73
2023-05-25T01:47:57.636Z,1.15
2023-05-25T01:53:03.782Z,0.70
2023-05-25T01:58:06.562Z,1.08
2023-05-25T02:03:08.479Z,0.60
2023-05-25T02:08:11.602Z,0.50
2023-05-25T02:13:13.271Z,0.82
2023-05-25T02:18:14.976Z,1.67
2023-05-25T02:23:18.083Z,0.47
2023-05-25T02:28:19.854Z,0.68
2023-05-25T02:33:21.573Z,1.58
2023-05-25T02:38:24.752Z,1.00
2023-05-25T02:43:26.409Z,0.77
2023-05-25T02:48:28.065Z,0.50
2023-05-25T02:53:31.095Z,0.85
2023-05-25T02:58:32.968Z,0.70
2023-05-25T03:03:34.704Z,0.70
2023-05-25T03:08:37.791Z,1.38
2023-05-25T03:13:39.459Z,1.02
2023-05-25T03:18:41.134Z,0.85
2023-05-25T03:23:44.183Z,0.70
2023-05-25T03:28:45.872Z,0.68
2023-05-25T03:33:47.541Z,0.70
2023-05-25T03:38:50.560Z,0.75
2023-05-25T03:43:52.229Z,0.90
2023-05-25T03:48:53.984Z,0.90
2023-05-25T03:54:00.185Z,1.27
2023-05-25T03:59:01.964Z,1.23
2023-05-25T04:04:03.953Z,1.15
2023-05-25T04:09:07.415Z,1.55
2023-05-25T04:14:09.150Z,0.70
2023-05-25T04:19:10.788Z,0.85
2023-05-25T04:24:14.000Z,0.43
2023-05-25T04:29:15.866Z,0.93
2023-05-25T04:34:17.615Z,0.45
2023-05-25T04:39:20.712Z,0.73
2023-05-25T04:44:22.553Z,0.65
2023-05-25T04:49:24.224Z,0.82
2023-05-25T04:54:27.332Z,0.82
2023-05-25T04:59:29.060Z,0.95
2023-05-25T05:04:30.802Z,0.32
2023-05-25T05:09:33.838Z,0.85
2023-05-25T05:14:35.488Z,0.80
2023-05-25T05:19:37.217Z,0.90
2023-05-25T05:24:40.230Z,0.90
2023-05-25T05:29:42.111Z,1.60
2023-05-25T05:34:43.849Z,0.82
2023-05-25T05:39:46.881Z,0.55
2023-05-25T05:44:48.726Z,0.65
2023-05-25T05:49:50.412Z,0.38
2023-05-25T05:54:53.591Z,0.70
2023-05-25T05:59:55.508Z,1.10
2023-05-25T06:04:57.263Z,0.63
2023-05-25T06:10:00.402Z,0.80
2023-05-25T06:15:02.118Z,1.25
2023-05-25T06:20:04.363Z,1.05
2023-05-25T06:25:08.540Z,1.17
2023-05-25T06:30:11.536Z,1.73
2023-05-25T06:35:13.521Z,2.20
2023-05-25T06:40:16.927Z,1.75
2023-05-25T06:45:18.639Z,2.42
2023-05-25T06:50:20.566Z,1.38
2023-05-25T06:55:23.640Z,1.42
2023-05-25T07:00:25.478Z,1.98
2023-05-25T07:05:27.396Z,1.65
2023-05-25T07:10:30.564Z,2.20
2023-05-25T07:15:32.320Z,1.65
2023-05-25T07:20:34.221Z,2.17
2023-05-25T07:25:38.145Z,2.70
2023-05-25T07:30:40.250Z,1.73
2023-05-25T07:35:42.056Z,2.72
2023-05-25T07:40:45.145Z,1.98
2023-05-25T07:45:46.989Z,1.37
2023-05-25T07:50:48.794Z,1.35
2023-05-25T07:55:51.815Z,2.08
2023-05-25T08:00:53.617Z,1.60
2023-05-25T08:05:55.277Z,1.42
2023-05-25T08:10:58.323Z,2.63
2023-05-25T08:16:00.033Z,2.03
2023-05-25T08:21:01.764Z,1.42
2023-05-25T08:26:15.533Z,1.00
2023-05-25T08:31:26.729Z,1.67
2023-05-25T08:36:28.592Z,0.77
2023-05-25T08:41:33.160Z,1.42
2023-05-25T08:46:35.067Z,1.00
2023-05-25T08:51:38.917Z,1.00
2023-05-25T08:56:49.682Z,1.20
2023-05-25T09:01:56.170Z,0.60
2023-05-25T09:07:09.510Z,1.40
2023-05-25T09:12:15.281Z,1.33
2023-05-25T09:17:17.780Z,0.90
2023-05-25T09:22:19.422Z,0.80
2023-05-25T09:27:23.599Z,0.80
2023-05-25T09:32:25.660Z,0.77
2023-05-25T09:37:27.671Z,0.90
2023-05-25T09:42:31.121Z,1.10
2023-05-25T09:47:32.913Z,0.77
2023-05-25T09:52:36.088Z,0.52
2023-05-25T09:57:39.215Z,0.55
2023-05-25T10:02:44.195Z,0.80
2023-05-25T10:07:47.023Z,1.45
2023-05-25T10:12:52.982Z,2.08
2023-05-25T10:17:55.577Z,1.13
2023-05-25T10:23:01.105Z,1.23
2023-05-25T10:28:08.564Z,1.10
2023-05-25T10:33:10.792Z,1.42
2023-05-25T10:38:13.104Z,1.02
2023-05-25T10:43:17.831Z,0.70
2023-05-25T10:48:19.689Z,1.52
2023-05-25T10:53:21.362Z,0.47
2023-05-25T10:58:27.786Z,0.75
2023-05-25T11:03:48.331Z,1.08
2023-05-25T11:08:52.009Z,0.63
2023-05-25T11:13:55.040Z,0.73
2023-05-25T11:18:58.133Z,0.90
2023-05-25T11:24:01.075Z,1.05
2023-05-25T11:29:15.500Z,0.75
2023-05-25T11:34:17.875Z,1.05
2023-05-25T11:39:23.039Z,1.10
2023-05-25T11:44:30.956Z,1.02
2023-05-25T11:49:32.637Z,0.65
2023-05-25T11:54:34.864Z,1.02
2023-05-25T11:59:37.974Z,0.60
2023-05-25T12:04:39.804Z,1.02
2023-05-25T12:09:41.627Z,0.65
2023-05-25T12:14:48.611Z,0.85
2023-05-25T12:19:50.513Z,0.60
2023-05-25T12:24:52.240Z,0.63
2023-05-25T12:29:58.822Z,0.60
2023-05-25T12:35:05.177Z,0.50
2023-05-25T12:40:17.526Z,0.52
2023-05-25T12:45:20.674Z,0.50
2023-05-25T12:50:22.398Z,1.15
2023-05-25T12:55:25.381Z,0.80
2023-05-25T13:00:55.105Z,1.33
2023-05-25T13:17:30.086Z,0.57
2023-05-25T13:27:48.478Z,0.77
2023-05-25T13:32:52.370Z,0.55
2023-05-25T13:37:54.132Z,0.45
2023-05-25T13:42:55.852Z,0.52
2023-05-25T13:47:58.982Z,0.73
2023-05-25T13:53:00.822Z,0.77
2023-05-25T13:58:02.792Z,1.05
2023-05-25T14:03:06.071Z,0.70
2023-05-25T14:08:07.898Z,1.90
2023-05-25T14:13:09.755Z,0.85
2023-05-25T14:18:12.992Z,0.93
2023-05-25T14:23:17.400Z,0.80
2023-05-25T14:28:19.942Z,0.55
2023-05-25T14:33:22.966Z,0.30
2023-05-25T14:38:24.631Z,0.57
2023-05-25T14:43:26.294Z,0.35
2023-05-25T14:48:29.406Z,0.68
2023-05-25T14:53:31.233Z,0.82
2023-05-25T14:58:32.901Z,0.60
2023-05-25T15:03:35.989Z,0.60
2023-05-25T15:08:37.801Z,1.25
2023-05-25T15:13:39.503Z,0.47
2023-05-25T15:24:41.490Z,0.40
2023-05-25T15:29:43.181Z,0.40
2023-05-25T15:34:45.026Z,0.57
2023-05-25T15:39:48.045Z,0.90
2023-05-25T15:44:49.693Z,0.70
2023-05-25T15:49:51.394Z,0.30
2023-05-25T15:54:54.498Z,0.50
2023-05-25T15:59:56.193Z,0.50
2023-05-25T16:04:58.076Z,0.73
2023-05-25T16:10:01.351Z,0.50
2023-05-25T16:15:03.430Z,0.68
2023-05-25T16:20:06.644Z,0.60
2023-05-25T16:25:10.320Z,0.65
2023-05-25T16:30:13.458Z,1.85
2023-05-25T16:35:15.386Z,1.92
2023-05-25T16:40:18.449Z,0.90
2023-05-25T16:45:20.211Z,0.40
2023-05-25T16:50:21.950Z,0.68
2023-05-25T16:55:25.055Z,0.95
2023-05-25T17:06:08.085Z,1.00
2023-05-25T17:11:11.231Z,0.93
2023-05-25T17:21:57.516Z,0.90
2023-05-25T17:27:00.963Z,1.15
2023-05-25T17:32:04.294Z,1.08
2023-05-25T17:37:06.623Z,1.42
2023-05-25T17:42:10.252Z,1.08
2023-05-25T17:47:14.089Z,1.15
2023-05-25T17:52:24.794Z,0.63
2023-05-25T17:57:29.476Z,1.02
2023-05-25T18:02:38.949Z,0.75
2023-05-25T18:07:40.840Z,0.88
2023-05-25T18:12:44.119Z,1.65
2023-05-25T18:17:45.982Z,1.27
2023-05-25T18:22:47.905Z,1.25
2023-05-25T18:27:51.101Z,0.73
2023-05-25T18:32:53.765Z,1.05
2023-05-25T18:37:55.666Z,0.95
2023-05-25T18:42:58.951Z,0.65
2023-05-25T18:48:00.949Z,1.33
2023-05-25T18:53:02.848Z,1.08
2023-05-25T18:58:05.972Z,0.90
2023-05-25T19:03:07.885Z,1.05
2023-05-25T19:08:09.607Z,1.38
2023-05-25T19:13:12.782Z,0.93
2023-05-25T19:18:14.614Z,0.77
2023-05-25T19:23:16.367Z,1.10
2023-05-25T19:28:19.697Z,1.33
2023-05-25T19:33:21.604Z,0.80
2023-05-25T19:38:26.529Z,1.08
2023-05-25T19:43:31.851Z,1.10
2023-05-25T19:48:33.632Z,0.93
2023-05-25T19:53:35.437Z,1.10
2023-05-25T19:58:38.601Z,0.93
2023-05-25T20:03:40.452Z,1.85
2023-05-25T20:08:42.245Z,1.55
2023-05-25T20:13:45.334Z,1.27
2023-05-25T20:18:47.018Z,1.48
2023-05-25T20:23:48.997Z,2.10
2023-05-25T20:28:52.109Z,2.47
2023-05-25T20:33:53.855Z,2.10
2023-05-25T20:38:55.547Z,1.45
2023-05-25T20:43:58.780Z,1.88
2023-05-25T20:49:00.491Z,1.23
2023-05-25T20:54:02.241Z,1.30
2023-05-25T20:59:05.319Z,1.67
2023-05-25T21:04:07.172Z,1.38
2023-05-25T21:09:09.055Z,2.08
2023-05-25T21:14:12.263Z,1.13
2023-05-25T21:19:15.837Z,1.98
2023-05-25T21:24:17.630Z,1.30
2023-05-25T21:29:20.807Z,1.45
2023-05-25T21:34:22.585Z,1.63
2023-05-25T21:39:24.303Z,1.38
2023-05-25T21:44:27.358Z,1.73
2023-05-25T21:49:29.049Z,1.50
2023-05-25T21:54:30.761Z,1.05
2023-05-25T21:59:33.825Z,1.50
2023-05-25T22:04:35.587Z,1.77
2023-05-25T22:09:37.399Z,1.10
2023-05-25T22:14:40.519Z,1.55
2023-05-25T22:19:44.840Z,1.60
2023-05-25T22:24:46.730Z,1.73
2023-05-25T22:29:49.803Z,2.38
2023-05-25T22:34:51.491Z,1.90
2023-05-25T22:39:53.274Z,1.23
2023-05-25T22:44:56.352Z,2.60
2023-05-25T22:49:58.050Z,1.65
2023-05-25T22:55:00.591Z,2.05
2023-05-25T23:00:04.139Z,2.10
2023-05-25T23:05:06.188Z,2.17
2023-05-25T23:10:08.682Z,1.70
2023-05-25T23:15:12.198Z,1.63
2023-05-25T23:20:13.906Z,1.75
2023-05-25T23:25:15.726Z,1.90
2023-05-25T23:30:18.817Z,1.50
2023-05-25T23:35:20.586Z,1.90
2023-05-25T23:40:22.333Z,1.65
2023-05-25T23:45:25.404Z,1.52
2023-05-25T23:50:27.115Z,1.88
2023-05-25T23:55:28.786Z,1.55
